createdAt,value
2018-11-04T00:01:04.771Z,14.86
2018-11-04T00:03:12.509Z,14.89
2018-11-04T00:05:20.308Z,14.91
2018-11-04T00:07:28.040Z,14.94
2018-11-04T00:09:35.774Z,14.96
2018-11-04T00:11:43.861Z,14.95
2018-11-04T00:13:51.600Z,14.96
2018-11-04T00:15:59.350Z,14.93
2018-11-04T00:18:07.379Z,14.92
2018-11-04T00:20:15.991Z,14.89
2018-11-04T00:22:23.831Z,14.85
2018-11-04T00:24:31.735Z,14.86
2018-11-04T00:26:39.556Z,14.87
2018-11-04T00:28:52.978Z,14.88
2018-11-04T00:31:01.068Z,14.84
2018-11-04T00:33:09.595Z,14.86
2018-11-04T00:35:33.063Z,14.84
2018-11-04T00:37:43.425Z,14.83
2018-11-04T00:39:51.229Z,14.86
2018-11-04T00:41:57.922Z,14.90
2018-11-04T00:44:05.862Z,14.95
2018-11-04T00:46:17.738Z,14.97
2018-11-04T00:48:26.272Z,14.98
2018-11-04T00:50:40.379Z,15.00
2018-11-04T00:52:50.675Z,15.00
2018-11-04T00:55:03.447Z,15.02
2018-11-04T00:57:11.427Z,15.01
2018-11-04T00:59:19.130Z,15.03
2018-11-04T01:01:31.404Z,15.04
2018-11-04T01:03:41.303Z,15.07
2018-11-04T01:05:52.043Z,15.06
2018-11-04T01:08:00.129Z,15.05
2018-11-04T01:10:14.944Z,15.04
2018-11-04T01:12:29.331Z,15.05
2018-11-04T01:14:42.597Z,15.04
2018-11-04T01:16:53.738Z,15.05
2018-11-04T01:19:04.652Z,15.05
2018-11-04T01:21:22.197Z,15.07
2018-11-04T01:23:27.003Z,15.10
2018-11-04T01:25:38.162Z,15.12
2018-11-04T01:27:46.416Z,15.11
2018-11-04T01:29:58.765Z,15.09
2018-11-04T01:32:11.479Z,15.05
2018-11-04T01:34:19.651Z,15.04
2018-11-04T01:36:27.429Z,15.04
2018-11-04T01:38:39.103Z,15.07
2018-11-04T01:40:47.219Z,15.09
2018-11-04T01:42:58.737Z,15.08
2018-11-04T01:45:10.975Z,15.05
2018-11-04T01:47:22.723Z,15.04
2018-11-04T01:49:30.790Z,15.02
2018-11-04T01:51:39.454Z,15.00
2018-11-04T01:54:06.797Z,14.98
2018-11-04T01:56:18.234Z,14.98
2018-11-04T01:58:27.781Z,15.00
2018-11-04T02:01:04.187Z,15.02
2018-11-04T02:03:19.221Z,15.05
2018-11-04T02:05:43.619Z,15.06
2018-11-04T02:08:17.620Z,15.05
2018-11-04T02:10:29.431Z,15.05
2018-11-04T02:12:47.605Z,15.06
2018-11-04T02:15:18.395Z,15.07
2018-11-04T02:18:06.897Z,15.07
2018-11-04T02:19:55.171Z,15.08
2018-11-04T02:24:42.805Z,15.03
2018-11-04T02:26:50.592Z,15.00
2018-11-04T02:28:58.745Z,15.01
2018-11-04T02:31:06.646Z,15.02
2018-11-04T02:33:14.352Z,15.05
2018-11-04T02:35:22.057Z,15.05
2018-11-04T02:37:29.870Z,15.06
2018-11-04T02:39:37.680Z,15.05
2018-11-04T02:41:45.424Z,15.06
2018-11-04T02:43:53.260Z,15.04
2018-11-04T02:46:01.338Z,15.04
2018-11-04T02:48:09.063Z,15.04
2018-11-04T02:50:16.885Z,15.02
2018-11-04T02:52:24.687Z,15.00
2018-11-04T02:54:32.981Z,15.01
2018-11-04T02:56:40.741Z,15.04
2018-11-04T02:58:48.568Z,15.04
2018-11-04T03:00:56.349Z,15.07
2018-11-04T03:03:04.067Z,15.08
2018-11-04T03:05:12.776Z,15.10
2018-11-04T03:07:21.972Z,15.09
2018-11-04T03:09:27.259Z,15.07
2018-11-04T03:11:34.968Z,15.03
2018-11-04T03:13:42.708Z,15.00
2018-11-04T03:15:53.784Z,14.99
2018-11-04T03:17:58.439Z,14.97
2018-11-04T03:20:06.286Z,14.95
2018-11-04T03:22:14.013Z,14.93
2018-11-04T03:24:22.782Z,14.94
2018-11-04T03:26:32.003Z,14.93
2018-11-04T03:28:39.968Z,14.92
2018-11-04T03:30:47.655Z,14.93
2018-11-04T03:32:55.518Z,14.93
2018-11-04T03:35:03.285Z,14.93
2018-11-04T03:37:10.998Z,14.93
2018-11-04T03:39:20.007Z,14.95
2018-11-04T03:41:27.758Z,14.97
2018-11-04T03:43:35.672Z,15.00
2018-11-04T03:45:43.772Z,15.02
2018-11-04T03:47:51.459Z,15.05
2018-11-04T03:49:59.265Z,15.08
2018-11-04T03:52:07.540Z,15.11
2018-11-04T03:54:15.431Z,15.12
2018-11-04T03:56:23.197Z,15.10
2018-11-04T03:58:31.166Z,15.07
2018-11-04T04:00:38.963Z,15.07
2018-11-04T04:02:46.744Z,15.08
2018-11-04T04:04:54.987Z,15.07
2018-11-04T04:07:02.634Z,15.05
2018-11-04T04:09:11.234Z,15.05
2018-11-04T04:11:18.944Z,15.04
2018-11-04T04:13:26.714Z,15.01
2018-11-04T04:15:36.103Z,14.99
2018-11-04T04:18:18.089Z,14.95
2018-11-04T04:21:18.692Z,14.92
2018-11-04T04:27:31.530Z,14.94
2018-11-04T04:29:39.253Z,14.92
2018-11-04T04:31:47.771Z,14.91
2018-11-04T04:33:55.944Z,14.92
2018-11-04T04:36:03.660Z,14.88
2018-11-04T04:38:11.768Z,14.88
2018-11-04T04:40:19.866Z,14.88
2018-11-04T04:42:28.193Z,14.88
2018-11-04T04:44:35.943Z,14.90
2018-11-04T04:46:43.687Z,14.91
2018-11-04T04:48:51.403Z,14.90
2018-11-04T04:50:59.205Z,14.90
2018-11-04T04:53:10.403Z,14.88
2018-11-04T04:55:18.104Z,14.89
2018-11-04T04:57:25.866Z,14.91
2018-11-04T04:59:33.952Z,14.91
2018-11-04T05:01:41.752Z,14.91
2018-11-04T05:03:49.527Z,14.89
2018-11-04T05:05:57.500Z,14.87
2018-11-04T05:08:05.227Z,14.83
2018-11-04T05:10:11.641Z,14.83
2018-11-04T05:12:17.121Z,14.81
2018-11-04T05:14:24.914Z,14.78
2018-11-04T05:16:33.136Z,14.77
2018-11-04T05:18:40.894Z,14.76
2018-11-04T05:20:48.619Z,14.77
2018-11-04T05:22:56.332Z,14.75
2018-11-04T05:25:04.022Z,14.75
2018-11-04T05:27:11.730Z,14.75
2018-11-04T05:29:19.963Z,14.75
2018-11-04T05:31:27.663Z,14.75
2018-11-04T05:33:35.346Z,14.74
2018-11-04T05:35:43.803Z,14.75
2018-11-04T05:37:51.909Z,14.76
2018-11-04T05:39:59.639Z,14.74
2018-11-04T05:42:07.760Z,14.76
2018-11-04T05:44:15.602Z,14.76
2018-11-04T05:46:23.359Z,14.78
2018-11-04T05:48:31.093Z,14.81
2018-11-04T05:50:38.955Z,14.83
2018-11-04T05:52:46.795Z,14.83
2018-11-04T05:54:54.608Z,14.83
2018-11-04T05:57:02.698Z,14.84
2018-11-04T05:59:10.400Z,14.85
2018-11-04T06:01:18.101Z,14.88
2018-11-04T06:03:25.824Z,14.88
2018-11-04T06:05:33.556Z,14.84
2018-11-04T06:07:41.595Z,14.81
2018-11-04T06:09:49.342Z,14.76
2018-11-04T06:11:57.454Z,14.72
2018-11-04T06:14:06.183Z,14.72
2018-11-04T06:16:13.987Z,14.71
2018-11-04T06:18:24.554Z,14.73
2018-11-04T06:20:32.429Z,14.75
2018-11-04T06:22:42.468Z,14.75
2018-11-04T06:24:50.332Z,14.77
2018-11-04T06:26:58.026Z,14.80
2018-11-04T06:29:05.837Z,14.81
2018-11-04T06:31:13.603Z,14.78
2018-11-04T06:33:21.361Z,14.77
2018-11-04T06:35:29.433Z,14.76
2018-11-04T06:37:40.719Z,14.75
2018-11-04T06:39:45.229Z,14.78
2018-11-04T06:41:51.850Z,14.80
2018-11-04T06:43:56.742Z,14.83
2018-11-04T06:46:06.282Z,14.83
2018-11-04T06:48:14.011Z,14.81
2018-11-04T06:50:21.729Z,14.81
2018-11-04T06:52:29.477Z,14.83
2018-11-04T06:54:37.524Z,14.82
2018-11-04T06:56:45.257Z,14.82
2018-11-04T06:58:54.611Z,14.82
2018-11-04T07:01:02.323Z,14.84
2018-11-04T07:03:10.100Z,14.87
2018-11-04T07:05:17.870Z,14.89
2018-11-04T07:07:25.610Z,14.89
2018-11-04T07:09:33.341Z,14.91
2018-11-04T07:11:41.451Z,14.91
2018-11-04T07:13:49.176Z,14.91
2018-11-04T07:15:57.336Z,14.93
2018-11-04T07:18:05.071Z,14.95
2018-11-04T07:20:12.788Z,14.97
2018-11-04T07:22:22.903Z,15.00
2018-11-04T07:24:30.610Z,15.02
2018-11-04T07:26:38.491Z,14.99
2018-11-04T07:28:46.608Z,14.97
2018-11-04T07:30:54.408Z,14.99
2018-11-04T07:33:02.097Z,15.01
2018-11-04T07:35:10.524Z,15.03
2018-11-04T07:37:18.251Z,15.07
2018-11-04T07:39:25.974Z,15.09
2018-11-04T07:41:32.211Z,15.10
2018-11-04T07:43:37.139Z,15.11
2018-11-04T07:45:47.223Z,15.12
2018-11-04T07:47:54.961Z,15.14
2018-11-04T07:50:03.115Z,15.15
2018-11-04T07:52:10.896Z,15.17
2018-11-04T07:54:18.890Z,15.18
2018-11-04T07:56:26.674Z,15.21
2018-11-04T07:58:34.510Z,15.24
2018-11-04T08:00:46.369Z,15.25
2018-11-04T08:02:54.203Z,15.27
2018-11-04T08:05:01.954Z,15.28
2018-11-04T08:07:09.862Z,15.27
2018-11-04T08:09:18.185Z,15.27
2018-11-04T08:11:25.893Z,15.28
2018-11-04T08:13:33.671Z,15.28
2018-11-04T08:15:41.405Z,15.30
2018-11-04T08:17:49.397Z,15.33
2018-11-04T08:19:57.522Z,15.34
2018-11-04T08:22:05.385Z,15.37
2018-11-04T08:24:13.298Z,15.38
2018-11-04T08:26:21.034Z,15.40
2018-11-04T08:28:29.114Z,15.40
2018-11-04T08:30:36.834Z,15.37
2018-11-04T08:32:44.603Z,15.36
2018-11-04T08:34:52.356Z,15.37
2018-11-04T08:37:00.135Z,15.40
2018-11-04T08:39:10.006Z,15.42
2018-11-04T08:41:17.782Z,15.46
2018-11-04T08:43:24.059Z,15.48
2018-11-04T08:45:28.990Z,15.48
2018-11-04T08:47:37.331Z,15.50
2018-11-04T08:49:45.039Z,15.52
2018-11-04T08:51:52.761Z,15.54
2018-11-04T08:54:00.599Z,15.56
2018-11-04T08:56:08.704Z,15.57
2018-11-04T08:58:16.656Z,15.58
2018-11-04T09:00:24.426Z,15.58
2018-11-04T09:02:33.321Z,15.59
2018-11-04T09:04:41.784Z,15.59
2018-11-04T09:06:49.980Z,15.59
2018-11-04T09:08:57.981Z,15.60
2018-11-04T09:11:05.789Z,15.62
2018-11-04T09:13:13.564Z,15.65
2018-11-04T09:15:21.344Z,15.70
2018-11-04T09:17:29.127Z,15.73
2018-11-04T09:19:36.887Z,15.76
2018-11-04T09:21:44.810Z,15.78
2018-11-04T09:23:53.070Z,15.80
2018-11-04T09:26:00.862Z,15.80
2018-11-04T09:28:08.817Z,15.77
2018-11-04T09:30:18.508Z,15.78
2018-11-04T09:32:26.181Z,15.78
2018-11-04T09:34:34.448Z,15.78
2018-11-04T09:36:42.928Z,15.80
2018-11-04T09:38:50.730Z,15.84
2018-11-04T09:40:58.726Z,15.88
2018-11-04T09:43:10.200Z,15.90
2018-11-04T09:45:15.164Z,15.89
2018-11-04T09:47:23.008Z,15.87
2018-11-04T09:49:30.820Z,15.87
2018-11-04T09:51:38.728Z,15.84
2018-11-04T09:53:46.499Z,15.89
2018-11-04T09:55:54.389Z,15.90
2018-11-04T09:58:02.222Z,15.90
2018-11-04T10:00:12.248Z,15.92
2018-11-04T10:02:20.516Z,15.94
2018-11-04T10:04:28.333Z,15.95
2018-11-04T10:06:36.211Z,15.93
2018-11-04T10:08:44.118Z,15.89
2018-11-04T10:10:51.964Z,15.91
2018-11-04T10:12:59.807Z,15.90
2018-11-04T10:15:08.901Z,15.92
2018-11-04T10:17:16.711Z,15.92
2018-11-04T10:19:26.152Z,15.93
2018-11-04T10:21:33.734Z,15.95
2018-11-04T10:23:42.396Z,15.98
2018-11-04T10:25:50.261Z,16.01
2018-11-04T10:27:57.973Z,16.02
2018-11-04T10:30:06.595Z,16.02
2018-11-04T10:32:15.419Z,16.03
2018-11-04T10:34:23.264Z,16.04
2018-11-04T10:36:31.078Z,16.05
2018-11-04T10:38:38.844Z,16.05
2018-11-04T10:40:47.017Z,16.04
2018-11-04T10:42:53.383Z,16.02
2018-11-04T10:45:07.764Z,16.01
2018-11-04T10:47:15.686Z,16.02
2018-11-04T10:49:26.259Z,16.02
2018-11-04T10:51:36.120Z,16.05
2018-11-04T10:53:44.080Z,16.06
2018-11-04T10:55:51.898Z,16.09
2018-11-04T10:57:59.886Z,16.13
2018-11-04T11:00:29.561Z,16.17
2018-11-04T11:02:37.411Z,16.22
2018-11-04T11:04:54.813Z,16.26
2018-11-04T11:07:06.116Z,16.28
2018-11-04T11:09:13.919Z,16.30
2018-11-04T11:11:22.911Z,16.31
2018-11-04T11:13:47.672Z,16.34
2018-11-04T11:15:58.722Z,16.32
2018-11-04T11:18:06.577Z,16.29
2018-11-04T11:20:25.063Z,16.27
2018-11-04T11:22:36.334Z,16.25
2018-11-04T11:24:44.220Z,16.24
2018-11-04T11:27:03.253Z,16.25
2018-11-04T11:29:33.330Z,16.28
2018-11-04T11:31:41.194Z,16.30
2018-11-04T11:33:49.266Z,16.29
2018-11-04T11:35:57.126Z,16.31
2018-11-04T11:38:05.209Z,16.35
2018-11-04T11:40:12.975Z,16.40
2018-11-04T11:42:18.838Z,16.40
2018-11-04T11:44:23.722Z,16.45
2018-11-04T11:46:30.354Z,16.48
2018-11-04T11:48:35.328Z,16.52
2018-11-04T11:50:46.451Z,16.56
2018-11-04T11:52:54.224Z,16.59
2018-11-04T11:59:16.813Z,16.69
2018-11-04T12:01:24.632Z,16.71
2018-11-04T12:03:32.477Z,16.71
2018-11-04T12:09:57.220Z,16.69
2018-11-04T12:12:05.362Z,16.68
2018-11-04T12:14:13.598Z,16.67
2018-11-04T12:16:21.626Z,16.65
2018-11-04T12:18:29.432Z,16.60
2018-11-04T12:20:37.196Z,16.60
2018-11-04T12:22:44.966Z,16.61
2018-11-04T12:24:52.957Z,16.61
2018-11-04T12:27:00.746Z,16.61
2018-11-04T12:29:09.253Z,16.64
2018-11-04T12:31:17.113Z,16.69
2018-11-04T12:33:24.866Z,16.73
2018-11-04T12:35:32.804Z,16.77
2018-11-04T12:41:59.333Z,16.86
2018-11-04T12:44:07.156Z,16.90
2018-11-04T12:46:15.212Z,16.87
2018-11-04T12:48:23.068Z,16.83
2018-11-04T12:50:30.945Z,16.78
2018-11-04T12:52:38.798Z,16.75
2018-11-04T12:54:46.591Z,16.73
2018-11-04T12:56:54.473Z,16.73
2018-11-04T12:59:02.421Z,16.74
2018-11-04T13:01:10.264Z,16.77
2018-11-04T13:03:20.278Z,16.80
2018-11-04T13:05:28.093Z,16.84
2018-11-04T13:07:35.923Z,16.86
2018-11-04T13:09:43.855Z,16.89
2018-11-04T13:11:52.328Z,16.91
2018-11-04T13:14:00.316Z,16.92
2018-11-04T13:16:08.142Z,16.91
2018-11-04T13:18:16.060Z,16.91
2018-11-04T13:20:26.347Z,16.90
2018-11-04T13:22:34.371Z,16.88
2018-11-04T13:24:42.223Z,16.88
2018-11-04T13:28:57.844Z,16.84
2018-11-04T13:31:05.633Z,16.82
2018-11-04T13:33:13.416Z,16.77
2018-11-04T13:35:21.269Z,16.76
2018-11-04T13:37:29.103Z,16.74
2018-11-04T13:39:36.891Z,16.73
2018-11-04T13:41:43.570Z,16.73
2018-11-04T13:43:48.501Z,16.75
2018-11-04T13:45:55.158Z,16.76
2018-11-04T13:48:00.078Z,16.76
2018-11-04T13:50:10.774Z,16.76
2018-11-04T13:52:18.716Z,16.76
2018-11-04T13:54:26.563Z,16.76
2018-11-04T13:56:34.336Z,16.76
2018-11-04T13:58:42.211Z,16.79
2018-11-04T14:00:49.977Z,16.82
2018-11-04T14:02:57.849Z,16.84
2018-11-04T14:05:06.007Z,16.81
2018-11-04T14:07:13.794Z,16.78
2018-11-04T14:09:21.607Z,16.78
2018-11-04T14:11:29.618Z,16.77
2018-11-04T14:13:37.430Z,16.76
2018-11-04T14:15:45.284Z,16.75
2018-11-04T14:17:53.507Z,16.77
2018-11-04T14:20:01.566Z,16.79
2018-11-04T14:22:09.449Z,16.81
2018-11-04T14:24:17.481Z,16.84
2018-11-04T14:26:25.367Z,16.84
2018-11-04T14:28:33.225Z,16.84
2018-11-04T14:30:41.042Z,16.83
2018-11-04T14:32:50.462Z,16.80
2018-11-04T14:34:59.306Z,16.81
2018-11-04T14:37:08.543Z,16.79
2018-11-04T14:39:16.486Z,16.79
2018-11-04T14:41:24.962Z,16.78
2018-11-04T14:43:33.905Z,16.78
2018-11-04T14:45:42.129Z,16.80
2018-11-04T14:47:49.924Z,16.82
2018-11-04T14:49:57.666Z,16.83
2018-11-04T14:52:06.840Z,16.83
2018-11-04T14:54:15.821Z,16.82
2018-11-04T14:56:26.748Z,16.80
2018-11-04T14:58:34.491Z,16.77
2018-11-04T15:00:42.349Z,16.77
2018-11-04T15:02:52.470Z,16.76
2018-11-04T15:05:00.862Z,16.76
2018-11-04T15:07:09.668Z,16.74
2018-11-04T15:09:19.499Z,16.69
2018-11-04T15:11:27.568Z,16.63
2018-11-04T15:13:35.367Z,16.58
2018-11-04T15:15:44.115Z,16.56
2018-11-04T15:17:53.978Z,16.54
2018-11-04T15:20:01.852Z,16.52
2018-11-04T15:24:10.071Z,16.55
2018-11-04T15:26:18.241Z,16.48
2018-11-04T15:28:25.951Z,16.45
2018-11-04T15:30:34.951Z,16.41
2018-11-04T15:32:43.895Z,16.38
2018-11-04T15:34:52.452Z,16.36
2018-11-04T15:37:00.265Z,16.35
2018-11-04T15:39:12.553Z,16.35
2018-11-04T15:41:20.571Z,16.34
2018-11-04T15:43:32.464Z,16.31
2018-11-04T15:45:40.415Z,16.27
2018-11-04T15:47:48.275Z,16.23
2018-11-04T15:49:56.113Z,16.23
2018-11-04T15:52:03.964Z,16.25
2018-11-04T15:54:12.093Z,16.26
2018-11-04T15:56:20.096Z,16.27
2018-11-04T15:58:28.264Z,16.26
2018-11-04T16:00:37.729Z,16.24
2018-11-04T16:02:46.298Z,16.24
2018-11-04T16:04:54.066Z,16.24
2018-11-04T16:07:01.833Z,16.26
2018-11-04T16:09:10.350Z,16.29
2018-11-04T16:11:18.335Z,16.31
2018-11-04T16:13:26.245Z,16.34
2018-11-04T16:15:34.442Z,16.36
2018-11-04T16:17:45.111Z,16.35
2018-11-04T16:19:52.953Z,16.29
2018-11-04T16:22:00.978Z,16.31
2018-11-04T16:24:09.136Z,16.30
2018-11-04T16:26:18.349Z,16.29
2018-11-04T16:28:26.193Z,16.26
2018-11-04T16:30:34.031Z,16.26
2018-11-04T16:32:41.954Z,16.24
2018-11-04T16:34:50.008Z,16.22
2018-11-04T16:36:59.240Z,16.17
2018-11-04T16:39:09.912Z,16.16
2018-11-04T16:41:17.727Z,16.14
2018-11-04T16:43:25.830Z,16.12
2018-11-04T16:45:33.189Z,16.09
2018-11-04T16:47:43.606Z,16.06
2018-11-04T16:49:51.466Z,16.04
2018-11-04T16:51:59.403Z,16.05
2018-11-04T16:54:07.752Z,16.06
2018-11-04T16:56:18.476Z,16.06
2018-11-04T16:58:26.478Z,16.02
2018-11-04T17:00:34.389Z,16.01
2018-11-04T17:02:42.336Z,16.04
2018-11-04T17:04:50.401Z,16.05
2018-11-04T17:07:00.895Z,16.05
2018-11-04T17:09:11.154Z,16.01
2018-11-04T17:11:20.387Z,16.01
2018-11-04T17:13:28.542Z,16.00
2018-11-04T17:15:36.440Z,16.01
2018-11-04T17:17:44.424Z,16.00
2018-11-04T17:19:52.166Z,15.98
2018-11-04T17:21:59.952Z,15.99
2018-11-04T17:24:07.843Z,15.96
2018-11-04T17:26:15.939Z,15.94
2018-11-04T17:28:24.088Z,15.91
2018-11-04T17:30:31.940Z,15.89
2018-11-04T17:32:39.885Z,15.88
2018-11-04T17:34:47.705Z,15.87
2018-11-04T17:36:55.733Z,15.86
2018-11-04T17:39:03.717Z,15.85
2018-11-04T17:41:11.533Z,15.82
2018-11-04T17:43:19.499Z,15.82
2018-11-04T17:45:27.440Z,15.82
2018-11-04T17:47:36.014Z,15.81
2018-11-04T17:49:43.939Z,15.81
2018-11-04T17:51:52.155Z,15.81
2018-11-04T17:54:01.260Z,15.83
2018-11-04T17:56:10.281Z,15.83
2018-11-04T17:58:18.431Z,15.83
2018-11-04T18:00:26.349Z,15.84
2018-11-04T18:02:35.109Z,15.82
2018-11-04T18:04:43.139Z,15.81
2018-11-04T18:06:54.405Z,15.81
2018-11-04T18:09:03.381Z,15.79
2018-11-04T18:11:11.406Z,15.80
2018-11-04T18:13:19.428Z,15.80
2018-11-04T18:15:27.344Z,15.82
2018-11-04T18:17:35.293Z,15.84
2018-11-04T18:19:43.340Z,15.84
2018-11-04T18:21:51.663Z,15.84
2018-11-04T18:24:00.541Z,15.84
2018-11-04T18:26:08.626Z,15.81
2018-11-04T18:28:16.711Z,15.81
2018-11-04T18:30:24.675Z,15.82
2018-11-04T18:32:34.427Z,15.82
2018-11-04T18:34:42.290Z,15.81
2018-11-04T18:36:50.432Z,15.81
2018-11-04T18:38:58.646Z,15.81
2018-11-04T18:41:06.690Z,15.81
2018-11-04T18:43:15.322Z,15.80
2018-11-04T18:45:23.101Z,15.80
2018-11-04T18:47:30.885Z,15.77
2018-11-04T18:49:38.308Z,15.76
2018-11-04T18:51:46.185Z,15.76
2018-11-04T18:53:54.238Z,15.72
2018-11-04T18:56:02.496Z,15.74
2018-11-04T18:58:10.418Z,15.74
2018-11-04T19:00:19.680Z,15.73
2018-11-04T19:02:28.666Z,15.73
2018-11-04T19:04:36.532Z,15.72
2018-11-04T19:06:46.978Z,15.71
2018-11-04T19:09:26.859Z,15.71
2018-11-04T19:11:38.928Z,15.73
2018-11-04T19:13:47.716Z,15.73
2018-11-04T19:16:11.123Z,15.74
2018-11-04T19:18:28.386Z,15.74
2018-11-04T19:20:45.669Z,15.73
2018-11-04T19:22:53.362Z,15.74
2018-11-04T19:25:03.124Z,15.75
2018-11-04T19:27:17.112Z,15.74
2018-11-04T19:29:38.617Z,15.75
2018-11-04T19:31:46.165Z,15.76
2018-11-04T19:33:54.276Z,15.74
2018-11-04T19:36:02.195Z,15.74
2018-11-04T19:38:10.198Z,15.74
2018-11-04T19:40:18.558Z,15.72
2018-11-04T19:42:26.481Z,15.71
2018-11-04T19:44:34.826Z,15.68
2018-11-04T19:46:42.737Z,15.64
2018-11-04T19:48:50.951Z,15.60
2018-11-04T19:50:56.071Z,15.56
2018-11-04T19:53:04.433Z,15.51
2018-11-04T19:55:12.954Z,15.51
2018-11-04T19:57:25.023Z,15.51
2018-11-04T19:59:33.212Z,15.52
2018-11-04T20:01:41.870Z,15.51
2018-11-04T20:03:49.831Z,15.51
2018-11-04T20:05:57.718Z,15.53
2018-11-04T20:08:05.786Z,15.53
2018-11-04T20:10:16.645Z,15.52
2018-11-04T20:12:46.328Z,15.51
2018-11-04T20:14:59.574Z,15.51
2018-11-04T20:17:07.393Z,15.51
2018-11-04T20:19:32.332Z,15.55
2018-11-04T20:21:41.446Z,15.55
2018-11-04T20:23:50.159Z,15.54
2018-11-04T20:26:06.946Z,15.53
2018-11-04T20:28:17.022Z,15.55
2018-11-04T20:30:35.884Z,15.56
2018-11-04T20:33:05.178Z,15.56
2018-11-04T20:35:14.356Z,15.53
2018-11-04T20:37:25.683Z,15.52
2018-11-04T20:39:50.742Z,15.48
2018-11-04T20:41:58.690Z,15.43
2018-11-04T20:44:06.532Z,15.41
2018-11-04T20:46:14.369Z,15.42
2018-11-04T20:48:39.589Z,15.44
2018-11-04T20:51:04.876Z,15.45
2018-11-04T20:53:13.389Z,15.46
2018-11-04T20:55:21.217Z,15.45
2018-11-04T20:57:44.439Z,15.44
2018-11-04T20:59:52.508Z,15.44
2018-11-04T21:04:49.002Z,15.45
2018-11-04T21:07:01.112Z,15.42
2018-11-04T21:09:17.472Z,15.42
2018-11-04T21:11:27.369Z,15.40
2018-11-04T21:13:35.090Z,15.37
2018-11-04T21:15:43.029Z,15.37
2018-11-04T21:17:51.094Z,15.38
2018-11-04T21:19:58.884Z,15.40
2018-11-04T21:22:07.918Z,15.43
2018-11-04T21:24:15.694Z,15.42
2018-11-04T21:26:23.582Z,15.43
2018-11-04T21:28:31.508Z,15.42
2018-11-04T21:30:39.230Z,15.42
2018-11-04T21:32:47.039Z,15.42
2018-11-04T21:34:59.682Z,15.41
2018-11-04T21:37:08.521Z,15.39
2018-11-04T21:39:17.172Z,15.38
2018-11-04T21:41:31.642Z,15.38
2018-11-04T21:43:40.576Z,15.38
2018-11-04T21:45:48.137Z,15.36
2018-11-04T21:47:55.915Z,15.38
2018-11-04T21:50:03.705Z,15.38
2018-11-04T21:52:11.580Z,15.37
2018-11-04T21:54:16.618Z,15.36
2018-11-04T21:56:24.552Z,15.37
2018-11-04T21:58:32.160Z,15.38
2018-11-04T22:00:39.947Z,15.37
2018-11-04T22:02:51.554Z,15.37
2018-11-04T22:05:02.796Z,15.37
2018-11-04T22:07:16.919Z,15.39
2018-11-04T22:09:24.801Z,15.39
2018-11-04T22:11:32.553Z,15.40
2018-11-04T22:13:40.392Z,15.40
2018-11-04T22:15:48.103Z,15.40
2018-11-04T22:17:55.862Z,15.41
2018-11-04T22:20:03.569Z,15.42
2018-11-04T22:22:11.821Z,15.42
2018-11-04T22:24:19.615Z,15.43
2018-11-04T22:26:27.459Z,15.40
2018-11-04T22:28:35.544Z,15.41
2018-11-04T22:30:45.489Z,15.42
2018-11-04T22:32:53.215Z,15.41
2018-11-04T22:35:01.105Z,15.40
2018-11-04T22:39:11.073Z,15.45
2018-11-04T22:41:20.015Z,15.39
2018-11-04T22:43:29.127Z,15.39
2018-11-04T22:45:36.713Z,15.38
2018-11-04T22:47:44.439Z,15.35
2018-11-04T22:49:52.278Z,15.33
2018-11-04T22:52:00.148Z,15.32
2018-11-04T22:54:08.245Z,15.30
2018-11-04T22:56:16.663Z,15.28
2018-11-04T22:58:24.432Z,15.27
2018-11-04T23:00:45.460Z,15.28
2018-11-04T23:02:53.150Z,15.31
2018-11-04T23:05:18.558Z,15.29
2018-11-04T23:07:26.319Z,15.30
2018-11-04T23:09:34.120Z,15.33
2018-11-04T23:11:41.871Z,15.34
2018-11-04T23:13:49.851Z,15.36
2018-11-04T23:15:57.584Z,15.37
2018-11-04T23:18:05.320Z,15.37
2018-11-04T23:20:13.239Z,15.35
2018-11-04T23:22:20.982Z,15.35
2018-11-04T23:24:28.715Z,15.32
2018-11-04T23:26:36.692Z,15.31
2018-11-04T23:28:44.408Z,15.31
2018-11-04T23:30:52.115Z,15.31
2018-11-04T23:32:59.862Z,15.31
2018-11-04T23:35:09.415Z,15.30
2018-11-04T23:37:17.173Z,15.29
2018-11-04T23:39:24.916Z,15.27
2018-11-04T23:41:32.733Z,15.25
2018-11-04T23:43:40.533Z,15.25
2018-11-04T23:45:48.313Z,15.24
2018-11-04T23:47:56.237Z,15.25
2018-11-04T23:50:04.104Z,15.26
2018-11-04T23:52:11.844Z,15.27
2018-11-04T23:54:19.844Z,15.24
2018-11-04T23:56:28.380Z,15.25
2018-11-04T23:58:37.578Z,15.26
